Time;durP1;ratioP1;P1;durP2;ratioP2;P2;SDS_P1;SDS_P2;PMS_P1;PMS_P2;Temp;Humidity;BMP_temperature;BMP_pressure;BME280_temperature;BME280_humidity;BME280_pressure;Samples;Min_cycle;Max_cycle;Signal;HPM_P1;HPM_P2
2022/08/02 00:01:22;;;;;;;10.52;3.25;;;15.50;99.90;;;;;;5094355;28;20035;-76
2022/08/02 00:03:47;;;;;;;13.27;3.42;;;15.50;99.90;;;;;;5092974;28;20043;-76
2022/08/02 00:06:13;;;;;;;13.32;3.20;;;15.70;99.90;;;;;;5094349;28;20044;-76
2022/08/02 00:08:39;;;;;;;8.68;3.20;;;15.40;99.90;;;;;;5094395;28;20036;-75
2022/08/02 00:11:05;;;;;;;10.63;3.10;;;15.40;99.90;;;;;;5094125;28;20488;-76
2022/08/02 00:13:30;;;;;;;9.60;3.40;;;15.40;99.90;;;;;;5092896;28;20044;-76
2022/08/02 00:15:56;;;;;;;10.07;3.08;;;15.50;99.90;;;;;;5075975;28;20040;-75
2022/08/02 00:18:22;;;;;;;10.13;3.20;;;15.80;99.90;;;;;;5090818;28;20036;-75
2022/08/02 00:20:47;;;;;;;10.68;3.38;;;15.50;99.90;;;;;;5093998;28;20186;-76
2022/08/02 00:23:13;;;;;;;11.70;3.47;;;15.60;99.90;;;;;;5094052;28;20177;-76
2022/08/02 00:25:38;;;;;;;12.35;3.55;;;15.70;99.90;;;;;;5092365;28;20040;-75
2022/08/02 00:28:04;;;;;;;9.10;3.10;;;15.50;99.90;;;;;;5093744;28;20047;-75
2022/08/02 00:30:30;;;;;;;10.20;3.10;;;15.50;99.90;;;;;;5093722;28;20131;-76
2022/08/02 00:32:55;;;;;;;11.38;3.30;;;15.50;99.90;;;;;;5093562;28;20048;-76
2022/08/02 00:35:21;;;;;;;7.80;2.97;;;15.30;99.90;;;;;;5092512;28;20404;-76
2022/08/02 00:37:47;;;;;;;8.23;3.20;;;16.10;99.90;;;;;;5093426;28;20040;-75
2022/08/02 00:40:13;;;;;;;10.45;2.75;;;15.30;99.90;;;;;;5092386;28;20113;-76
2022/08/02 00:42:39;;;;;;;9.43;3.38;;;15.30;99.90;;;;;;5075429;28;20404;-75
2022/08/02 00:45:05;;;;;;;9.68;3.10;;;15.30;99.90;;;;;;5093611;28;20040;-75
2022/08/02 00:47:31;;;;;;;9.20;3.00;;;15.20;99.90;;;;;;5093490;28;20051;-76
2022/08/02 00:49:56;;;;;;;12.63;3.30;;;15.30;99.90;;;;;;5092568;28;20032;-75
2022/08/02 00:52:23;;;;;;;10.48;3.22;;;15.20;99.90;;;;;;5093099;28;20048;-76
2022/08/02 00:54:52;;;;;;;8.77;2.80;;;15.20;99.90;;;;;;5092403;28;20043;-75
2022/08/02 00:57:17;;;;;;;11.95;3.53;;;15.20;99.90;;;;;;5091856;28;20048;-75
2022/08/02 00:59:43;;;;;;;10.10;2.88;;;15.10;99.90;;;;;;5093386;28;20505;-75
2022/08/02 01:02:09;;;;;;;9.32;3.03;;;15.10;99.90;;;;;;5093188;28;20115;-76
2022/08/02 01:04:34;;;;;;;16.23;2.97;;;15.10;99.90;;;;;;5092828;28;20044;-75
2022/08/02 01:07:02;;;;;;;11.52;3.10;;;15.00;99.90;;;;;;5093141;28;20101;-75
2022/08/02 01:09:28;;;;;;;9.00;2.88;;;15.00;99.90;;;;;;5093186;28;20484;-75
2022/08/02 01:11:54;;;;;;;7.05;2.55;;;15.20;99.90;;;;;;5093142;28;20115;-75
2022/08/02 01:14:23;;;;;;;9.15;2.85;;;15.00;99.90;;;;;;5091537;28;20036;-76
2022/08/02 01:17:04;;;;;;;9.98;2.83;;;15.00;99.90;;;;;;5091485;28;20048;-76
2022/08/02 01:19:56;;;;;;;8.15;2.85;;;15.00;99.90;;;;;;5074805;28;20054;-76
2022/08/02 01:22:27;;;;;;;8.25;2.65;;;14.90;99.90;;;;;;5088434;28;20109;-76
2022/08/02 01:25:01;;;;;;;10.77;3.03;;;14.90;99.90;;;;;;5091861;28;20040;-75
2022/08/02 01:28:05;;;;;;;11.13;3.00;;;14.90;99.90;;;;;;5092860;28;20400;-75
2022/08/02 01:30:34;;;;;;;7.45;2.70;;;14.70;99.90;;;;;;5091721;28;20089;-75
2022/08/02 01:33:01;;;;;;;9.57;2.90;;;14.70;99.90;;;;;;5090296;28;20090;-75
2022/08/02 01:35:35;;;;;;;7.78;2.60;;;14.60;99.90;;;;;;5092833;28;20483;-76
2022/08/02 01:38:09;;;;;;;11.63;2.90;;;14.50;99.90;;;;;;5091555;28;20143;-76
2022/08/02 01:40:38;;;;;;;10.85;2.90;;;14.50;99.90;;;;;;5092840;28;20067;-76
2022/08/02 01:43:05;;;;;;;8.77;2.90;;;14.70;99.90;;;;;;5092504;28;20048;-76
2022/08/02 01:45:36;;;;;;;8.75;2.70;;;14.40;99.90;;;;;;5091546;28;20503;-76
2022/08/02 01:48:03;;;;;;;7.88;3.28;;;14.90;99.90;;;;;;5092110;28;20534;-76
2022/08/02 01:50:32;;;;;;;5.82;2.58;;;14.30;99.90;;;;;;5090656;28;20055;-76
2022/08/02 01:53:05;;;;;;;9.07;2.92;;;14.30;99.90;;;;;;5092339;28;20441;-75
2022/08/02 01:55:44;;;;;;;8.18;2.63;;;14.30;99.90;;;;;;5092331;28;20186;-76
2022/08/02 01:58:14;;;;;;;9.38;2.90;;;14.40;99.90;;;;;;5092697;28;20044;-75
2022/08/02 02:00:41;;;;;;;13.57;3.47;;;14.20;99.90;;;;;;5092811;28;20036;-76
2022/08/02 02:03:19;;;;;;;8.95;2.90;;;14.10;99.90;;;;;;5092486;28;20044;-76
2022/08/02 02:05:50;;;;;;;8.55;2.70;;;14.20;99.90;;;;;;5092328;28;20048;-75
2022/08/02 02:08:22;;;;;;;9.90;3.00;;;14.00;99.90;;;;;;5091347;28;20097;-75
2022/08/02 02:10:49;;;;;;;10.18;2.97;;;14.10;99.90;;;;;;5091795;28;20052;-75
2022/08/02 02:13:18;;;;;;;7.88;2.72;;;14.10;99.90;;;;;;5090930;28;20102;-75
2022/08/02 02:15:46;;;;;;;8.98;3.42;;;15.00;99.90;;;;;;5092354;28;20069;-75
2022/08/02 02:18:17;;;;;;;8.93;2.80;;;14.00;99.90;;;;;;5092249;28;20044;-76
2022/08/02 02:20:43;;;;;;;9.15;3.33;;;14.20;99.90;;;;;;5091246;28;20044;-76
2022/08/02 02:23:10;;;;;;;10.82;3.50;;;14.00;99.90;;;;;;5092307;28;20467;-75
2022/08/02 02:25:39;;;;;;;11.60;3.63;;;14.10;99.90;;;;;;5092196;28;20122;-75
2022/08/02 02:28:10;;;;;;;8.95;3.13;;;14.10;99.90;;;;;;5090258;28;20040;-75
2022/08/02 02:30:38;;;;;;;11.88;3.40;;;14.10;99.90;;;;;;5090099;28;20067;-76
2022/08/02 02:33:06;;;;;;;9.70;3.15;;;14.20;99.90;;;;;;5074031;28;20453;-75
2022/08/02 02:35:37;;;;;;;7.57;3.22;;;14.10;99.90;;;;;;5089501;28;20100;-76
2022/08/02 02:38:12;;;;;;;10.50;3.40;;;14.10;99.90;;;;;;5092316;28;20123;-75
2022/08/02 02:40:39;;;;;;;9.35;3.20;;;14.10;99.90;;;;;;5091102;28;20429;-75
2022/08/02 02:43:06;;;;;;;8.15;3.00;;;14.10;99.90;;;;;;5095843;28;20043;-76
2022/08/02 02:45:33;;;;;;;10.27;3.13;;;14.10;99.90;;;;;;5095873;28;20349;-75
2022/08/02 02:48:00;;;;;;;10.02;3.20;;;14.40;99.90;;;;;;5094643;28;20447;-75
2022/08/02 02:50:27;;;;;;;11.60;3.20;;;14.00;99.90;;;;;;5095947;28;20086;-76
2022/08/02 02:52:54;;;;;;;12.75;3.50;;;14.10;99.90;;;;;;5095802;28;20139;-76
2022/08/02 02:55:21;;;;;;;8.95;3.20;;;14.10;99.90;;;;;;5095993;28;20047;-75
2022/08/02 02:57:47;;;;;;;11.68;3.45;;;14.20;99.90;;;;;;5095586;28;20438;-75
2022/08/02 03:00:14;;;;;;;12.52;3.10;;;14.20;99.90;;;;;;5095627;28;20054;-76
2022/08/02 03:02:42;;;;;;;9.18;3.00;;;14.10;99.90;;;;;;5095611;28;20435;-75
2022/08/02 03:05:09;;;;;;;8.77;3.13;;;14.10;99.90;;;;;;5095768;28;20102;-75
2022/08/02 03:07:35;;;;;;;9.48;3.80;;;14.10;99.90;;;;;;5095477;28;20040;-75
2022/08/02 03:10:05;;;;;;;11.18;3.30;;;14.70;99.90;;;;;;5095711;28;20048;-75
2022/08/02 03:12:33;;;;;;;11.30;3.30;;;14.10;99.90;;;;;;5095148;28;20036;-76
2022/08/02 03:15:06;;;;;;;10.10;3.10;;;14.80;99.90;;;;;;5093940;28;20052;-76
2022/08/02 03:17:43;;;;;;;10.38;3.70;;;14.10;99.90;;;;;;5094982;28;20044;-75
2022/08/02 03:20:18;;;;;;;8.40;3.10;;;14.10;99.90;;;;;;5095456;28;20472;-75
2022/08/02 03:22:44;;;;;;;7.03;3.30;;;14.10;99.90;;;;;;5095061;28;20050;-75
2022/08/02 03:25:12;;;;;;;10.68;3.50;;;14.10;99.90;;;;;;5095214;28;20075;-75
2022/08/02 03:27:38;;;;;;;8.88;3.40;;;14.80;99.90;;;;;;5094846;28;20396;-76
2022/08/02 03:30:06;;;;;;;11.10;3.20;;;14.10;99.90;;;;;;5095099;28;20067;-75
2022/08/02 03:32:34;;;;;;;11.27;3.22;;;14.10;99.90;;;;;;5094943;28;20044;-75
2022/08/02 03:35:00;;;;;;;12.95;3.20;;;14.10;99.90;;;;;;5095074;28;20044;-75
2022/08/02 03:37:28;;;;;;;9.65;3.15;;;14.70;99.90;;;;;;5093320;28;20040;-76
2022/08/02 03:39:55;;;;;;;8.38;3.15;;;14.10;99.90;;;;;;5094916;28;20086;-76
2022/08/02 03:42:21;;;;;;;12.25;3.55;;;14.00;99.90;;;;;;5094579;28;20048;-76
2022/08/02 03:44:48;;;;;;;10.60;3.08;;;14.70;99.90;;;;;;5093409;28;20040;-75
2022/08/02 03:47:14;;;;;;;12.48;3.50;;;13.90;99.90;;;;;;5094801;28;20043;-76
2022/08/02 03:49:42;;;;;;;12.30;3.50;;;13.80;99.90;;;;;;5076772;28;20044;-75
2022/08/02 03:52:08;;;;;;;10.15;3.50;;;14.10;99.90;;;;;;5092783;28;20052;-75
2022/08/02 03:54:34;;;;;;;11.13;3.78;;;14.40;99.90;;;;;;5092838;28;20051;-76
2022/08/02 03:56:59;;;;;;;12.77;3.50;;;13.80;99.90;;;;;;5093055;28;20130;-75
2022/08/02 03:59:25;;;;;;;10.68;3.70;;;13.70;99.90;;;;;;5094617;28;20429;-76
2022/08/02 04:01:51;;;;;;;8.63;3.47;;;13.80;99.90;;;;;;5094445;28;20052;-75
2022/08/02 04:04:16;;;;;;;11.65;3.55;;;13.80;99.90;;;;;;5093087;28;20521;-75
2022/08/02 04:06:42;;;;;;;10.57;3.35;;;13.80;99.90;;;;;;5092891;28;20059;-75
2022/08/02 04:09:08;;;;;;;8.27;3.60;;;13.70;99.90;;;;;;5076122;28;20036;-75
2022/08/02 04:11:34;;;;;;;10.77;3.47;;;13.70;99.90;;;;;;5092940;28;20047;-76
2022/08/02 04:14:03;;;;;;;13.30;3.65;;;13.70;99.90;;;;;;5092728;28;20435;-76
2022/08/02 04:17:06;;;;;;;9.80;3.80;;;13.80;99.90;;;;;;5094276;28;20119;-76
2022/08/02 04:19:42;;;;;;;11.43;3.45;;;13.70;99.90;;;;;;5091068;28;20535;-75
2022/08/02 04:22:18;;;;;;;10.68;4.18;;;13.80;99.90;;;;;;5092006;28;20040;-75
2022/08/02 04:24:46;;;;;;;;;;;13.70;99.90;;;;;;5094452;28;20090;-75
2022/08/02 04:27:12;;;;;;;11.73;4.10;;;13.70;99.90;;;;;;5092517;28;19924;-75
2022/08/02 04:29:40;;;;;;;9.07;4.00;;;14.50;99.90;;;;;;5093971;28;20024;-74
2022/08/02 04:32:06;;;;;;;10.50;3.90;;;14.00;99.90;;;;;;5093353;28;20056;-74
2022/08/02 04:34:32;;;;;;;13.15;4.28;;;13.70;99.90;;;;;;5093952;28;20430;-74
2022/08/02 04:36:59;;;;;;;13.55;4.50;;;14.30;99.90;;;;;;5093566;28;20044;-74
2022/08/02 04:39:25;;;;;;;14.63;4.25;;;13.80;99.90;;;;;;5075234;28;20088;-74
2022/08/02 04:41:51;;;;;;;9.43;3.88;;;13.80;99.90;;;;;;5093670;28;20051;-74
2022/08/02 04:44:16;;;;;;;9.52;3.92;;;13.80;99.90;;;;;;5093417;28;20377;-74
2022/08/02 04:46:43;;;;;;;11.57;3.95;;;13.80;99.90;;;;;;5093187;28;20476;-74
2022/08/02 04:49:09;;;;;;;14.18;4.90;;;13.90;99.90;;;;;;5093440;28;20442;-74
2022/08/02 04:51:35;;;;;;;10.57;4.57;;;14.00;99.90;;;;;;5093010;28;20127;-75
2022/08/02 04:54:03;;;;;;;9.48;3.97;;;14.00;99.90;;;;;;5091648;28;20161;-74
2022/08/02 04:56:28;;;;;;;14.80;4.35;;;13.90;99.90;;;;;;5092000;28;20063;-75
2022/08/02 04:58:54;;;;;;;14.15;4.55;;;13.90;99.90;;;;;;5092582;28;20036;-74
2022/08/02 05:01:19;;;;;;;10.32;4.40;;;14.70;99.90;;;;;;5091935;28;20055;-75
2022/08/02 05:03:45;;;;;;;9.98;4.22;;;13.90;99.90;;;;;;5090887;28;20056;-74
2022/08/02 05:06:11;;;;;;;15.00;4.38;;;14.00;99.90;;;;;;5091897;28;20048;-75
2022/08/02 05:08:36;;;;;;;12.45;4.20;;;14.80;99.90;;;;;;5091462;28;20357;-75
2022/08/02 05:11:02;;;;;;;11.45;4.57;;;13.90;99.90;;;;;;5093176;28;20412;-74
2022/08/02 05:13:28;;;;;;;16.13;4.45;;;14.60;99.90;;;;;;5091398;28;20063;-74
2022/08/02 05:15:53;;;;;;;13.90;4.60;;;14.10;99.90;;;;;;5092794;28;20048;-74
2022/08/02 05:18:19;;;;;;;15.88;4.60;;;14.10;99.90;;;;;;5092819;28;20086;-74
2022/08/02 05:20:45;;;;;;;12.65;4.35;;;14.10;99.90;;;;;;5092910;28;20047;-75
2022/08/02 05:23:10;;;;;;;11.30;5.18;;;14.20;99.90;;;;;;5092609;28;20496;-75
2022/08/02 05:25:36;;;;;;;12.88;4.80;;;14.30;99.90;;;;;;5091315;28;20165;-75
2022/08/02 05:28:02;;;;;;;11.30;4.07;;;14.30;99.90;;;;;;5092851;28;20036;-75
2022/08/02 05:30:27;;;;;;;13.10;4.63;;;14.30;99.90;;;;;;5092764;28;20476;-75
2022/08/02 05:32:53;;;;;;;11.10;4.53;;;14.40;99.90;;;;;;5092637;28;20055;-75
2022/08/02 05:35:20;;;;;;;16.77;4.28;;;14.50;99.90;;;;;;5092467;28;20063;-75
2022/08/02 05:37:47;;;;;;;12.45;4.35;;;15.10;99.90;;;;;;5090102;28;20051;-75
2022/08/02 05:40:13;;;;;;;11.93;4.25;;;14.60;99.90;;;;;;5091474;28;20040;-75
2022/08/02 05:42:39;;;;;;;11.32;4.57;;;14.70;99.90;;;;;;5092372;28;20040;-75
2022/08/02 05:45:05;;;;;;;12.77;4.65;;;14.70;99.90;;;;;;5091243;28;20489;-75
2022/08/02 05:47:31;;;;;;;11.45;3.95;;;14.80;99.90;;;;;;5091055;28;20048;-75
2022/08/02 05:49:57;;;;;;;13.40;4.30;;;15.10;99.90;;;;;;5092550;28;20040;-75
2022/08/02 05:52:25;;;;;;;14.90;4.38;;;14.90;99.90;;;;;;5090784;28;20032;-75
2022/08/02 05:55:12;;;;;;;10.75;3.85;;;15.20;99.90;;;;;;5092104;28;20040;-75
2022/08/02 05:58:12;;;;;;;14.18;4.30;;;15.00;99.90;;;;;;5092166;28;20552;-75
2022/08/02 06:00:40;;;;;;;11.68;4.07;;;15.10;99.90;;;;;;5091226;28;20040;-75
2022/08/02 06:03:23;;;;;;;12.02;3.78;;;15.90;99.90;;;;;;5091174;28;20450;-75
2022/08/02 06:06:12;;;;;;;14.98;4.25;;;15.30;99.90;;;;;;5090936;28;20055;-75
2022/08/02 06:08:46;;;;;;;11.07;4.07;;;15.40;99.90;;;;;;5092139;28;20105;-75
2022/08/02 06:11:14;;;;;;;11.15;3.70;;;15.50;99.90;;;;;;5090803;28;20048;-75
2022/08/02 06:13:44;;;;;;;13.43;3.60;;;15.50;99.90;;;;;;5091956;28;20040;-75
2022/08/02 06:16:10;;;;;;;11.95;3.45;;;15.70;99.90;;;;;;5094915;28;20036;-75
2022/08/02 06:18:36;;;;;;;12.90;3.55;;;15.70;99.90;;;;;;5096466;28;20115;-75
2022/08/02 06:21:04;;;;;;;13.85;3.78;;;15.80;99.90;;;;;;5094809;28;20044;-76
2022/08/02 06:23:31;;;;;;;12.05;3.22;;;15.90;99.90;;;;;;5095669;28;20377;-75
2022/08/02 06:25:58;;;;;;;9.68;3.00;;;16.50;99.90;;;;;;5094673;28;20563;-76
2022/08/02 06:28:25;;;;;;;8.20;3.25;;;16.10;99.90;;;;;;5095788;28;20085;-76
2022/08/02 06:30:51;;;;;;;10.68;3.08;;;16.20;99.90;;;;;;5077525;28;20071;-76
2022/08/02 06:33:17;;;;;;;8.73;2.92;;;16.80;99.90;;;;;;5094471;28;20117;-76
2022/08/02 06:36:06;;;;;;;7.50;2.97;;;16.50;99.90;;;;;;5094441;28;20069;-76
2022/08/02 06:38:39;;;;;;;7.80;3.13;;;16.60;99.90;;;;;;5094488;28;20440;-75
2022/08/02 06:41:07;;;;;;;10.02;3.00;;;16.70;99.90;;;;;;5094708;28;20144;-75
2022/08/02 06:43:59;;;;;;;12.18;3.10;;;16.80;99.90;;;;;;5095800;28;20051;-75
2022/08/02 06:46:25;;;;;;;11.38;2.97;;;16.80;99.90;;;;;;5095660;28;20495;-75
2022/08/02 06:48:51;;;;;;;8.60;3.15;;;16.90;99.90;;;;;;5095603;28;20036;-75
2022/08/02 06:51:16;;;;;;;10.95;2.90;;;17.00;99.90;;;;;;5095350;28;20067;-76
2022/08/02 06:53:42;;;;;;;7.32;2.88;;;17.00;99.90;;;;;;5095627;28;20473;-75
2022/08/02 06:56:08;;;;;;;8.57;2.90;;;17.10;99.90;;;;;;5114824;28;20036;-76
2022/08/02 06:58:34;;;;;;;11.90;2.83;;;17.20;99.90;;;;;;5114809;28;20402;-75
2022/08/02 07:01:00;;;;;;;8.13;3.10;;;17.50;99.90;;;;;;5107326;28;20406;-76
2022/08/02 07:03:26;;;;;;;8.48;2.90;;;17.40;99.90;;;;;;5093685;28;20046;-75
2022/08/02 07:05:52;;;;;;;9.73;2.80;;;17.50;99.90;;;;;;5094984;28;20445;-75
2022/08/02 07:08:19;;;;;;;8.32;2.63;;;17.60;99.90;;;;;;5095066;28;20055;-76
2022/08/02 07:10:45;;;;;;;9.07;2.80;;;17.70;99.90;;;;;;5095222;28;20043;-76
2022/08/02 07:13:11;;;;;;;11.45;2.88;;;17.80;99.90;;;;;;5094212;28;20036;-77
2022/08/02 07:15:37;;;;;;;8.07;2.45;;;17.90;99.90;;;;;;5093402;28;20079;-76
2022/08/02 07:18:04;;;;;;;11.00;2.60;;;18.00;99.90;;;;;;5095168;28;20090;-76
2022/08/02 07:20:30;;;;;;;7.47;2.55;;;18.10;99.90;;;;;;5095158;28;20105;-76
2022/08/02 07:22:55;;;;;;;7.10;2.40;;;18.10;99.90;;;;;;5093961;28;20044;-76
2022/08/02 07:25:21;;;;;;;11.18;2.40;;;18.20;99.90;;;;;;5094951;28;20036;-76
2022/08/02 07:27:46;;;;;;;9.40;2.30;;;18.30;99.90;;;;;;5092177;28;20044;-76
2022/08/02 07:30:12;;;;;;;9.18;2.60;;;18.30;99.90;;;;;;5094086;28;20040;-76
2022/08/02 07:32:38;;;;;;;5.10;2.03;;;18.40;99.90;;;;;;5093472;28;20421;-76
2022/08/02 07:35:05;;;;;;;5.25;2.13;;;18.40;99.90;;;;;;5094890;28;20044;-75
2022/08/02 07:37:33;;;;;;;10.07;2.38;;;18.50;99.90;;;;;;5094317;28;20072;-75
2022/08/02 07:39:58;;;;;;;9.05;2.20;;;18.70;99.90;;;;;;5094851;28;20144;-75
2022/08/02 07:42:24;;;;;;;8.23;2.10;;;18.70;99.90;;;;;;5094638;28;20115;-75
2022/08/02 07:44:51;;;;;;;7.38;2.10;;;18.80;99.90;;;;;;5094635;28;20121;-75
2022/08/02 07:47:17;;;;;;;5.82;1.95;;;18.90;99.90;;;;;;5127271;27;20457;-75
2022/08/02 07:49:43;;;;;;;5.95;2.17;;;19.00;99.90;;;;;;5094709;28;20506;-76
2022/08/02 07:52:09;;;;;;;6.43;2.05;;;19.10;99.90;;;;;;5092890;28;20119;-76
2022/08/02 07:54:35;;;;;;;6.00;1.70;;;19.20;99.90;;;;;;5127262;27;20572;-76
2022/08/02 07:57:00;;;;;;;5.75;2.00;;;19.20;99.90;;;;;;5094615;28;20079;-76
2022/08/02 07:59:26;;;;;;;4.88;1.88;;;19.30;99.90;;;;;;5093069;28;20123;-76
2022/08/02 08:01:52;;;;;;;6.50;1.95;;;19.40;99.90;;;;;;5094243;28;20485;-77
2022/08/02 08:04:18;;;;;;;4.35;1.80;;;19.50;99.90;;;;;;5094437;28;20548;-76
2022/08/02 08:06:48;;;;;;;4.50;1.60;;;19.70;99.90;;;;;;5094403;28;20108;-75
2022/08/02 08:09:14;;;;;;;6.75;1.90;;;19.70;99.90;;;;;;5094281;28;20071;-76
2022/08/02 08:11:39;;;;;;;5.03;1.80;;;19.90;99.90;;;;;;5092877;28;20047;-76
2022/08/02 08:14:05;;;;;;;4.55;1.70;;;20.20;99.90;;;;;;5109495;28;20468;-75
2022/08/02 08:16:31;;;;;;;4.18;1.45;;;20.10;99.90;;;;;;5093901;28;20094;-76
2022/08/02 08:18:57;;;;;;;8.45;1.80;;;20.20;99.90;;;;;;5093253;28;20090;-75
2022/08/02 08:21:23;;;;;;;5.57;1.75;;;20.30;99.90;;;;;;5094044;28;20043;-75
2022/08/02 08:23:49;;;;;;;5.70;1.85;;;20.50;99.90;;;;;;5091691;28;20476;-75
2022/08/02 08:26:15;;;;;;;5.10;1.52;;;20.60;99.90;;;;;;5092322;28;20412;-76
2022/08/02 08:28:40;;;;;;;4.60;1.80;;;20.70;99.90;;;;;;5093557;28;20040;-76
2022/08/02 08:31:06;;;;;;;8.10;1.90;;;20.80;99.90;;;;;;5093728;28;20056;-76
2022/08/02 08:33:32;;;;;;;3.05;1.60;;;20.90;99.90;;;;;;5093624;28;20058;-76
2022/08/02 08:35:58;;;;;;;3.25;1.50;;;21.00;99.90;;;;;;5093547;28;20113;-76
2022/08/02 08:38:24;;;;;;;3.63;1.60;;;21.00;99.90;;;;;;5092526;28;20077;-76
2022/08/02 08:40:52;;;;;;;4.70;1.80;;;21.00;99.90;;;;;;5093431;28;20039;-76
2022/08/02 08:43:18;;;;;;;7.45;1.70;;;21.10;99.90;;;;;;5091524;28;20058;-76
2022/08/02 08:45:45;;;;;;;4.10;1.50;;;21.40;99.90;;;;;;5092182;28;20039;-76
2022/08/02 08:48:12;;;;;;;3.97;1.50;;;21.30;99.90;;;;;;5092018;28;20044;-76
2022/08/02 08:50:52;;;;;;;3.72;1.58;;;21.40;99.90;;;;;;5093374;28;20040;-76
2022/08/02 08:53:20;;;;;;;3.92;1.42;;;21.50;99.90;;;;;;5092740;28;20491;-76
2022/08/02 08:55:47;;;;;;;4.22;1.67;;;21.60;99.30;;;;;;5092480;28;20044;-76
2022/08/02 08:58:13;;;;;;;3.75;1.60;;;21.70;99.70;;;;;;5093400;28;20044;-76
2022/08/02 09:00:40;;;;;;;4.03;1.60;;;21.80;99.40;;;;;;5093574;28;20476;-76
2022/08/02 09:03:07;;;;;;;4.13;1.58;;;21.90;99.50;;;;;;5092076;28;20047;-76
2022/08/02 09:05:37;;;;;;;2.88;1.40;;;22.00;98.80;;;;;;5092802;28;20065;-76
2022/08/02 09:08:04;;;;;;;5.78;1.73;;;22.10;98.90;;;;;;5091960;28;20389;-77
2022/08/02 09:10:37;;;;;;;5.85;1.50;;;22.20;99.10;;;;;;5092906;28;20040;-76
2022/08/02 09:13:10;;;;;;;4.30;1.60;;;22.40;98.70;;;;;;5093063;28;20143;-77
2022/08/02 09:15:36;;;;;;;3.92;1.63;;;22.40;98.60;;;;;;5092894;28;20044;-77
2022/08/02 09:18:04;;;;;;;3.78;1.40;;;22.40;98.20;;;;;;5091714;28;20048;-77
2022/08/02 09:20:32;;;;;;;4.07;1.48;;;22.50;98.50;;;;;;5092484;28;20040;-77
2022/08/02 09:23:06;;;;;;;9.90;1.70;;;22.50;98.50;;;;;;5092943;28;20101;-77
2022/08/02 09:25:32;;;;;;;4.32;1.60;;;22.80;98.80;;;;;;5092570;28;20051;-77
2022/08/02 09:27:58;;;;;;;8.10;2.05;;;22.80;98.40;;;;;;5093039;28;20055;-77
2022/08/02 09:30:25;;;;;;;2.53;1.50;;;23.00;98.60;;;;;;5092498;28;20381;-77
2022/08/02 09:32:51;;;;;;;9.10;1.83;;;23.20;98.50;;;;;;5090970;28;20048;-77
2022/08/02 09:35:36;;;;;;;6.25;1.80;;;23.40;98.70;;;;;;5093012;28;20047;-77
2022/08/02 09:38:09;;;;;;;3.75;1.70;;;23.50;98.10;;;;;;5092628;28;20040;-77
2022/08/02 09:40:37;;;;;;;3.78;1.60;;;23.70;98.60;;;;;;5091368;28;20088;-77
2022/08/02 09:43:04;;;;;;;11.85;1.98;;;23.80;98.20;;;;;;5092441;28;20416;-76
2022/08/02 09:45:33;;;;;;;7.18;2.17;;;23.90;98.30;;;;;;5092377;28;20154;-75
2022/08/02 09:48:05;;;;;;;5.13;1.80;;;24.10;98.30;;;;;;5089830;28;20048;-76
2022/08/02 09:50:30;;;;;;;3.65;1.83;;;24.20;98.00;;;;;;5090409;28;20040;-76
2022/08/02 09:52:56;;;;;;;5.70;1.80;;;24.30;97.90;;;;;;5092193;28;20051;-75
2022/08/02 09:55:23;;;;;;;5.47;1.80;;;24.40;97.80;;;;;;5091854;28;20516;-75
2022/08/02 09:57:49;;;;;;;3.65;1.70;;;24.70;97.80;;;;;;5090589;28;20067;-76
2022/08/02 10:00:15;;;;;;;6.10;1.83;;;25.10;97.70;;;;;;5091929;28;20440;-76
2022/08/02 10:03:04;;;;;;;5.15;1.85;;;25.30;97.10;;;;;;5092095;28;20146;-76
2022/08/02 10:05:29;;;;;;;4.75;1.98;;;25.50;97.30;;;;;;5073960;28;20051;-76
2022/08/02 10:07:56;;;;;;;5.18;1.67;;;25.80;97.30;;;;;;5092345;28;20040;-76
2022/08/02 10:10:22;;;;;;;5.30;1.83;;;26.40;96.50;;;;;;5092236;28;20073;-76
2022/08/02 10:12:48;;;;;;;4.25;1.90;;;27.20;95.90;;;;;;5091831;28;20043;-76
2022/08/02 10:15:15;;;;;;;4.35;2.00;;;28.30;95.50;;;;;;5092015;28;20044;-76
2022/08/02 10:17:42;;;;;;;5.47;2.15;;;29.50;94.10;;;;;;5092276;28;20082;-77
2022/08/02 10:20:08;;;;;;;5.30;2.42;;;29.60;93.30;;;;;;5092298;28;20111;-77
2022/08/02 10:22:35;;;;;;;4.35;1.85;;;29.10;93.10;;;;;;5091984;28;20160;-76
2022/08/02 10:25:03;;;;;;;4.40;2.00;;;29.00;93.30;;;;;;5092704;28;20139;-77
2022/08/02 10:27:29;;;;;;;6.78;2.25;;;28.70;93.70;;;;;;5091902;28;20089;-77
2022/08/02 10:29:58;;;;;;;3.38;1.92;;;28.90;94.40;;;;;;5092316;28;20439;-76
2022/08/02 10:32:36;;;;;;;5.25;2.20;;;30.30;93.70;;;;;;5092095;28;20059;-76
2022/08/02 10:35:10;;;;;;;4.93;2.20;;;31.20;92.80;;;;;;5090323;28;20044;-77
2022/08/02 10:37:38;;;;;;;4.68;2.03;;;31.10;92.40;;;;;;5090850;28;20048;-76
2022/08/02 10:40:05;;;;;;;3.80;1.90;;;30.60;92.40;;;;;;5092648;28;20449;-77
2022/08/02 10:42:51;;;;;;;4.38;2.05;;;29.90;93.10;;;;;;5090206;28;20052;-77
2022/08/02 10:45:19;;;;;;;5.70;2.25;;;30.70;92.90;;;;;;5091024;28;20052;-76
2022/08/02 10:47:57;;;;;;;5.10;2.22;;;30.20;93.20;;;;;;5090768;28;20040;-77
2022/08/02 10:50:49;;;;;;;6.63;2.30;;;30.70;93.00;;;;;;5091820;28;20059;-77
2022/08/02 10:53:31;;;;;;;6.25;2.20;;;31.40;92.30;;;;;;5088935;28;20093;-77
2022/08/02 10:56:00;;;;;;;3.65;2.00;;;32.30;92.30;;;;;;5091819;28;20078;-77
2022/08/02 10:58:28;;;;;;;5.55;2.25;;;32.50;91.50;;;;;;5091840;28;20091;-77
2022/08/02 11:00:54;;;;;;;5.90;2.38;;;33.30;91.30;;;;;;5092112;28;20084;-78
2022/08/02 11:03:41;;;;;;;4.78;2.10;;;33.10;90.70;;;;;;5093979;28;20048;-77
2022/08/02 11:06:12;;;;;;;6.15;2.22;;;33.50;90.60;;;;;;5095728;28;20093;-77
2022/08/02 11:08:38;;;;;;;4.95;2.20;;;32.80;90.90;;;;;;5095691;28;20160;-75
2022/08/02 11:11:24;;;;;;;6.13;2.22;;;32.10;91.00;;;;;;5095306;28;20143;-76
2022/08/02 11:13:58;;;;;;;4.97;2.20;;;31.10;91.20;;;;;;5094889;28;20405;-75
2022/08/02 11:16:56;;;;;;;5.55;2.00;;;30.10;92.20;;;;;;5095263;28;20040;-75
2022/08/02 11:19:28;;;;;;;6.05;2.10;;;29.20;93.00;;;;;;5094935;28;20048;-75
2022/08/02 11:22:17;;;;;;;5.50;2.15;;;28.80;93.50;;;;;;5095050;28;20438;-75
2022/08/02 11:24:43;;;;;;;6.63;2.13;;;28.60;93.60;;;;;;5095397;28;20382;-76
2022/08/02 11:27:17;;;;;;;5.00;2.20;;;28.10;93.80;;;;;;5093911;28;20117;-76
2022/08/02 11:29:45;;;;;;;4.55;2.10;;;27.50;94.50;;;;;;5093944;28;20048;-76
2022/08/02 11:32:20;;;;;;;6.57;2.30;;;27.50;94.80;;;;;;5094896;28;20048;-76
2022/08/02 11:34:48;;;;;;;6.47;2.40;;;27.50;95.30;;;;;;5094708;28;20101;-76
2022/08/02 11:37:27;;;;;;;4.88;2.60;;;27.70;95.30;;;;;;5094972;28;20048;-77
2022/08/02 11:39:53;;;;;;;5.22;2.40;;;28.80;95.00;;;;;;5094434;28;20047;-76
2022/08/02 11:42:19;;;;;;;5.30;2.55;;;29.90;94.20;;;;;;5093826;28;20116;-76
2022/08/02 11:44:45;;;;;;;5.82;2.53;;;29.90;93.70;;;;;;5127205;27;20044;-76
2022/08/02 11:47:12;;;;;;;6.80;2.67;;;29.60;93.80;;;;;;5094519;28;20044;-76
2022/08/02 11:49:38;;;;;;;6.57;2.22;;;29.50;94.20;;;;;;5093537;28;20094;-76
2022/08/02 11:52:06;;;;;;;8.50;2.40;;;28.90;94.60;;;;;;5093251;28;20056;-76
2022/08/02 11:54:40;;;;;;;6.45;2.58;;;28.20;95.00;;;;;;5094231;28;20043;-76
2022/08/02 11:57:14;;;;;;;3.90;2.20;;;28.00;95.60;;;;;;5092898;28;20610;-76
2022/08/02 11:59:40;;;;;;;4.03;2.30;;;28.20;95.50;;;;;;5094258;28;20408;-76
2022/08/02 12:02:06;;;;;;;4.18;2.40;;;28.60;95.50;;;;;;5094237;28;20044;-76
2022/08/02 12:04:33;;;;;;;4.15;2.15;;;28.90;95.20;;;;;;5094395;28;20051;-77
2022/08/02 12:07:00;;;;;;;5.57;2.47;;;29.10;94.60;;;;;;5094428;28;20044;-77
2022/08/02 12:09:27;;;;;;;4.88;2.60;;;28.80;94.70;;;;;;5093670;28;20044;-76
2022/08/02 12:11:54;;;;;;;4.65;2.38;;;28.00;95.30;;;;;;5093520;28;20088;-76
2022/08/02 12:14:20;;;;;;;6.97;2.63;;;27.90;95.70;;;;;;5093459;28;20046;-76
2022/08/02 12:19:32;;;;;;;6.22;2.58;;;27.50;96.70;;;;;;5094127;28;20427;-76
2022/08/02 12:22:19;;;;;;;5.55;3.15;;;27.20;97.10;;;;;;5093463;28;20043;-76
2022/08/02 12:24:47;;;;;;;8.00;3.35;;;26.90;97.60;;;;;;5093816;28;20051;-76
2022/08/02 12:27:36;;;;;;;6.18;3.13;;;26.70;98.00;;;;;;5092514;28;20052;-76
2022/08/02 12:30:11;;;;;;;6.53;3.20;;;26.70;98.10;;;;;;5098996;28;20051;-76
2022/08/02 12:32:37;;;;;;;8.45;3.80;;;26.80;98.30;;;;;;5145909;27;20478;-77
2022/08/02 12:35:10;;;;;;;7.20;3.90;;;26.90;98.30;;;;;;5113698;28;20051;-77
2022/08/02 12:37:38;;;;;;;6.65;3.35;;;26.90;98.30;;;;;;5113542;28;20055;-76
2022/08/02 12:40:20;;;;;;;6.60;4.40;;;27.00;98.50;;;;;;5113799;28;20088;-76
2022/08/02 12:42:49;;;;;;;9.25;4.85;;;26.70;99.00;;;;;;5113662;28;20096;-77
2022/08/02 12:45:16;;;;;;;7.22;4.40;;;26.30;99.60;;;;;;5113972;28;20407;-76
2022/08/02 12:47:52;;;;;;;8.45;4.28;;;26.30;99.70;;;;;;5101416;28;20373;-76
2022/08/02 12:50:26;;;;;;;7.22;3.90;;;26.20;99.90;;;;;;5093008;28;20101;-76
2022/08/02 12:53:02;;;;;;;8.68;3.85;;;26.00;99.90;;;;;;5125864;27;20047;-76
2022/08/02 12:55:27;;;;;;;6.22;3.95;;;25.90;99.90;;;;;;5093152;28;20040;-76